Time;durP1;ratioP1;P1;durP2;ratioP2;P2;SDS_P1;SDS_P2;PMS_P1;PMS_P2;Temp;Humidity;BMP_temperature;BMP_pressure;BME280_temperature;BME280_humidity;BME280_pressure;Samples;Min_cycle;Max_cycle;Signal;HPM_P1;HPM_P2
2022/07/20 00:00:40;;;;;;;30.35;21.98;;;;;;;;;;5041012;28;20625;-66
2022/07/20 00:03:15;;;;;;;29.52;21.52;;;;;;;;;;5045531;28;20500;-65
2022/07/20 00:06:10;;;;;;;29.77;23.33;;;;;;;;;;5046072;28;20040;-65
2022/07/20 00:11:52;;;;;;;34.00;24.50;;;;;;;;;;5045949;28;20053;-69
2022/07/20 00:14:34;;;;;;;26.30;22.55;;;;;;;;;;5066745;28;20032;-70
2022/07/20 00:17:23;;;;;;;25.63;21.35;;;;;;;;;;5085567;28;20060;-70
2022/07/20 00:20:06;;;;;;;25.98;22.00;;;;;;;;;;5068171;28;20044;-70
2022/07/20 00:22:56;;;;;;;29.77;21.98;;;;;;;;;;5081871;28;20131;-70
2022/07/20 00:25:38;;;;;;;26.23;20.63;;;;;;;;;;5045668;28;20069;-70
2022/07/20 00:28:27;;;;;;;20.90;18.65;;;;;;;;;;5045319;28;20122;-70
2022/07/20 00:31:15;;;;;;;25.65;20.20;;;;;;;;;;5052528;28;20510;-70
2022/07/20 00:34:10;;;;;;;23.25;18.05;;;;;;;;;;5065476;28;20044;-70
2022/07/20 00:36:59;;;;;;;19.77;16.92;;;;;;;;;;5065146;28;20841;-70
2022/07/20 00:39:48;;;;;;;24.40;18.70;;;;;;;;;;5065137;28;20052;-70
2022/07/20 00:42:30;;;;;;;31.10;19.77;;;;;;;;;;5064962;28;20048;-71
2022/07/20 00:45:19;;;;;;;23.35;18.95;;;;;;;;;;5064963;28;20600;-72
2022/07/20 00:48:01;;;;;;;27.20;18.88;;;;;;;;;;5065223;28;20152;-71
2022/07/20 00:50:49;;;;;;;28.45;20.02;;;;;;;;;;5064959;28;20072;-70
2022/07/20 00:53:31;;;;;;;27.58;21.58;;;;;;;;;;5064242;28;20044;-70
2022/07/20 00:56:19;;;;;;;25.13;20.45;;;;;;;;;;5065417;28;20051;-71
2022/07/20 00:59:02;;;;;;;25.50;19.45;;;;;;;;;;5065330;28;20363;-70
2022/07/20 01:01:49;;;;;;;25.40;19.85;;;;;;;;;;5065007;28;20127;-69
2022/07/20 01:04:38;;;;;;;34.30;21.05;;;;;;;;;;5064945;28;20151;-72
2022/07/20 01:07:27;;;;;;;24.75;20.48;;;;;;;;;;5049898;28;20048;-70
2022/07/20 01:10:09;;;;;;;22.88;19.50;;;;;;;;;;5045604;28;20111;-72
2022/07/20 01:12:57;;;;;;;27.38;20.35;;;;;;;;;;5028629;28;20048;-71
2022/07/20 01:15:45;;;;;;;27.27;19.25;;;;;;;;;;5044890;28;20040;-70
2022/07/20 01:18:40;;;;;;;22.48;20.08;;;;;;;;;;5025667;28;20073;-72
2022/07/20 01:21:15;;;;;;;22.02;19.67;;;;;;;;;;5025291;28;20041;-69
2022/07/20 01:24:04;;;;;;;27.75;19.55;;;;;;;;;;5010317;28;20115;-70
2022/07/20 01:26:47;;;;;;;28.40;19.77;;;;;;;;;;5043655;28;20068;-70
2022/07/20 01:29:42;;;;;;;24.20;20.17;;;;;;;;;;5041206;28;20052;-71
2022/07/20 01:32:17;;;;;;;32.83;22.65;;;;;;;;;;5064537;28;20072;-70
2022/07/20 01:35:06;;;;;;;26.23;21.60;;;;;;;;;;5046189;28;20065;-71
2022/07/20 01:37:47;;;;;;;30.75;21.05;;;;;;;;;;5061582;28;20052;-70
2022/07/20 01:40:42;;;;;;;27.50;22.83;;;;;;;;;;5065161;28;20060;-71
2022/07/20 01:43:17;;;;;;;25.25;21.00;;;;;;;;;;5056576;28;20052;-71
2022/07/20 01:46:12;;;;;;;34.20;22.63;;;;;;;;;;5045251;28;20062;-71
2022/07/20 01:48:47;;;;;;;31.40;22.15;;;;;;;;;;5043853;28;20055;-70
2022/07/20 01:51:36;;;;;;;28.73;21.13;;;;;;;;;;5045208;28;20076;-70
2022/07/20 01:54:17;;;;;;;28.95;21.75;;;;;;;;;;5045355;28;20152;-71
2022/07/20 01:57:06;;;;;;;32.33;22.65;;;;;;;;;;5030133;28;20058;-72
2022/07/20 01:59:54;;;;;;;28.10;21.80;;;;;;;;;;5055316;28;20056;-71
2022/07/20 02:02:44;;;;;;;24.40;21.70;;;;;;;;;;5065036;28;20055;-71
2022/07/20 02:05:32;;;;;;;28.67;22.65;;;;;;;;;;5065043;28;20056;-69
2022/07/20 02:08:25;;;;;;;28.88;21.50;;;;;;;;;;5064391;28;20094;-71
2022/07/20 02:11:07;;;;;;;28.35;20.77;;;;;;;;;;5064842;28;20051;-70
2022/07/20 02:14:02;;;;;;;28.23;22.13;;;;;;;;;;5064829;28;20052;-70
2022/07/20 02:16:50;;;;;;;28.00;22.95;;;;;;;;;;5064912;28;20055;-70
2022/07/20 02:19:39;;;;;;;26.83;22.67;;;;;;;;;;5065453;28;20434;-71
2022/07/20 02:22:27;;;;;;;29.50;23.52;;;;;;;;;;5053226;28;20041;-71
2022/07/20 02:25:09;;;;;;;28.92;23.58;;;;;;;;;;5050172;28;20091;-72
2022/07/20 02:27:58;;;;;;;31.67;24.08;;;;;;;;;;5031586;28;20609;-71
2022/07/20 02:30:40;;;;;;;30.73;23.65;;;;;;;;;;5050291;28;20059;-69
2022/07/20 02:33:28;;;;;;;33.22;26.48;;;;;;;;;;5037884;28;20116;-70
2022/07/20 02:36:18;;;;;;;29.83;25.20;;;;;;;;;;5046839;28;20137;-69
2022/07/20 02:39:07;;;;;;;32.67;26.35;;;;;;;;;;5046567;28;20510;-70
2022/07/20 02:41:48;;;;;;;36.83;28.50;;;;;;;;;;5068097;28;20803;-71
2022/07/20 02:44:37;;;;;;;34.33;27.73;;;;;;;;;;5049736;28;20065;-70
2022/07/20 02:47:19;;;;;;;32.28;25.45;;;;;;;;;;5048537;28;20057;-70
2022/07/20 02:50:06;;;;;;;33.38;28.30;;;;;;;;;;5048526;28;20065;-70
2022/07/20 02:52:49;;;;;;;32.58;27.88;;;;;;;;;;5048605;28;20048;-70
2022/07/20 02:55:37;;;;;;;30.98;27.05;;;;;;;;;;5047773;28;20136;-71
2022/07/20 02:58:19;;;;;;;36.75;26.50;;;;;;;;;;5047640;28;20380;-70
2022/07/20 03:01:07;;;;;;;28.90;24.90;;;;;;;;;;5048046;28;20045;-71
2022/07/20 03:03:49;;;;;;;34.78;24.30;;;;;;;;;;5042087;28;20048;-71
2022/07/20 03:06:37;;;;;;;26.98;23.63;;;;;;;;;;5047628;28;20061;-70
2022/07/20 03:09:18;;;;;;;25.92;23.05;;;;;;;;;;5050044;28;20040;-71
2022/07/20 03:12:07;;;;;;;28.38;22.02;;;;;;;;;;5050955;28;20045;-71
2022/07/20 03:14:49;;;;;;;25.27;21.15;;;;;;;;;;5047809;28;20060;-71
2022/07/20 03:18:02;;;;;;;27.75;18.55;;;;;;;;;;5033706;28;20152;-71
2022/07/20 03:20:37;;;;;;;21.63;17.60;;;;;;;;;;5047435;28;20114;-70
2022/07/20 03:23:26;;;;;;;18.65;16.20;;;;;;;;;;5063667;28;20388;-70
2022/07/20 03:26:08;;;;;;;22.20;14.85;;;;;;;;;;5067259;28;20044;-69
2022/07/20 03:28:57;;;;;;;15.32;13.23;;;;;;;;;;5067734;28;20430;-71
2022/07/20 03:31:39;;;;;;;21.67;12.82;;;;;;;;;;5052199;28;20037;-71
2022/07/20 03:34:34;;;;;;;15.10;11.77;;;;;;;;;;5049825;28;20132;-70
2022/07/20 03:37:09;;;;;;;15.65;10.48;;;;;;;;;;5036764;28;20131;-71
2022/07/20 03:39:58;;;;;;;12.90;10.43;;;;;;;;;;5051785;28;20056;-70
2022/07/20 03:42:40;;;;;;;12.13;10.68;;;;;;;;;;5049819;28;20106;-70
2022/07/20 03:45:35;;;;;;;13.65;10.68;;;;;;;;;;5060665;28;20033;-71
2022/07/20 03:48:11;;;;;;;14.00;10.60;;;;;;;;;;5056636;28;20134;-70
2022/07/20 03:51:06;;;;;;;20.60;12.18;;;;;;;;;;5060500;28;20044;-71
2022/07/20 03:53:41;;;;;;;14.48;11.15;;;;;;;;;;5060661;28;20049;-69
2022/07/20 03:56:30;;;;;;;15.95;10.88;;;;;;;;;;5057187;28;20143;-71
2022/07/20 03:59:13;;;;;;;14.02;12.38;;;;;;;;;;5055250;28;20159;-70
2022/07/20 04:02:09;;;;;;;18.00;13.05;;;;;;;;;;5048648;28;20056;-71
2022/07/20 04:04:52;;;;;;;20.08;15.60;;;;;;;;;;5049117;28;20044;-70
2022/07/20 04:07:47;;;;;;;14.98;12.63;;;;;;;;;;5048674;28;20055;-71
2022/07/20 04:10:22;;;;;;;15.88;10.52;;;;;;;;;;5047253;28;20540;-70
2022/07/20 04:13:11;;;;;;;15.63;11.18;;;;;;;;;;5046454;28;20052;-71
2022/07/20 04:15:59;;;;;;;15.68;10.98;;;;;;;;;;5051011;28;20059;-71
2022/07/20 04:18:47;;;;;;;13.80;11.00;;;;;;;;;;5030595;28;20110;-72
2022/07/20 04:21:42;;;;;;;14.82;11.27;;;;;;;;;;5047218;28;20041;-71
2022/07/20 04:24:17;;;;;;;12.18;9.65;;;;;;;;;;4995299;28;20053;-72
2022/07/20 04:27:12;;;;;;;11.45;9.55;;;;;;;;;;5037475;28;20596;-71
2022/07/20 04:29:47;;;;;;;14.07;9.90;;;;;;;;;;5046093;28;20045;-70
2022/07/20 04:32:42;;;;;;;15.73;11.30;;;;;;;;;;5014570;28;21652;-73
2022/07/20 04:35:17;;;;;;;15.57;11.20;;;;;;;;;;5050349;28;20057;-71
2022/07/20 04:38:17;;;;;;;16.67;13.23;;;;;;;;;;5047176;28;20037;-72
2022/07/20 04:40:53;;;;;;;36.80;18.98;;;;;;;;;;5047010;28;20048;-70
2022/07/20 04:43:42;;;;;;;31.30;20.33;;;;;;;;;;5036397;28;20080;-72
2022/07/20 04:46:24;;;;;;;27.10;19.40;;;;;;;;;;5045657;28;20148;-71
2022/07/20 04:49:19;;;;;;;24.33;17.38;;;;;;;;;;5045271;28;20583;-70
2022/07/20 04:51:54;;;;;;;29.23;15.57;;;;;;;;;;5046550;28;20118;-70
2022/07/20 04:54:46;;;;;;;26.75;15.60;;;;;;;;;;5028377;28;20140;-71
2022/07/20 04:57:27;;;;;;;21.40;14.15;;;;;;;;;;5045865;28;20487;-71
2022/07/20 05:00:17;;;;;;;21.60;12.57;;;;;;;;;;5045521;28;20326;-71
2022/07/20 05:02:59;;;;;;;17.08;8.50;;;;;;;;;;5046275;28;20052;-71
2022/07/20 05:05:47;;;;;;;16.60;7.28;;;;;;;;;;5027681;28;20040;-72
2022/07/20 05:08:30;;;;;;;11.75;6.88;;;;;;;;;;5044543;28;20049;-71
2022/07/20 05:11:19;;;;;;;10.40;5.80;;;;;;;;;;5025841;28;20045;-71
2022/07/20 05:14:01;;;;;;;14.77;4.95;;;;;;;;;;5026055;28;20048;-71
2022/07/20 05:16:56;;;;;;;6.63;4.57;;;;;;;;;;5027515;28;20107;-70
2022/07/20 05:19:51;;;;;;;10.73;4.43;;;;;;;;;;5034900;28;20045;-71
2022/07/20 05:22:46;;;;;;;7.55;3.95;;;;;;;;;;5025755;28;20115;-72
2022/07/20 05:25:21;;;;;;;4.90;4.35;;;;;;;;;;5025264;28;20061;-72
2022/07/20 05:28:11;;;;;;;5.47;3.95;;;;;;;;;;5043872;28;20115;-70
2022/07/20 05:30:56;;;;;;;6.93;4.15;;;;;;;;;;5041109;28;20038;-71
2022/07/20 05:33:45;;;;;;;7.07;4.75;;;;;;;;;;5047410;28;20060;-71
2022/07/20 05:36:28;;;;;;;9.85;4.97;;;;;;;;;;5064985;28;20360;-71
2022/07/20 05:39:17;;;;;;;5.60;4.50;;;;;;;;;;5043035;28;20144;-70
2022/07/20 05:42:05;;;;;;;5.35;4.70;;;;;;;;;;5023186;28;20108;-70
2022/07/20 05:44:47;;;;;;;5.40;4.40;;;;;;;;;;5024464;28;20049;-71
2022/07/20 05:47:35;;;;;;;6.20;4.63;;;;;;;;;;5032451;28;20056;-72
2022/07/20 05:50:17;;;;;;;4.50;3.92;;;;;;;;;;5043454;28;20041;-68
2022/07/20 05:53:05;;;;;;;7.05;4.03;;;;;;;;;;5038301;28;20102;-72
2022/07/20 05:55:47;;;;;;;4.07;3.55;;;;;;;;;;5029927;28;20045;-70
2022/07/20 05:58:35;;;;;;;10.30;5.40;;;;;;;;;;5025446;28;20566;-70
2022/07/20 06:01:17;;;;;;;6.88;4.20;;;;;;;;;;5027686;28;20050;-70
2022/07/20 06:04:05;;;;;;;8.45;4.60;;;;;;;;;;5032995;28;20056;-72
2022/07/20 06:06:46;;;;;;;7.82;4.75;;;;;;;;;;5013665;28;20045;-71
2022/07/20 06:09:34;;;;;;;6.05;4.30;;;;;;;;;;5037024;28;20060;-70
2022/07/20 06:12:24;;;;;;;5.35;4.32;;;;;;;;;;5048405;28;20044;-70
2022/07/20 06:15:05;;;;;;;8.50;3.88;;;;;;;;;;5033210;28;20044;-70
2022/07/20 06:18:01;;;;;;;6.93;4.60;;;;;;;;;;5052105;28;20072;-71
2022/07/20 06:20:50;;;;;;;6.82;5.60;;;;;;;;;;5069419;28;20048;-71
2022/07/20 06:23:39;;;;;;;6.38;5.00;;;;;;;;;;5069164;28;20106;-72
2022/07/20 06:26:33;;;;;;;5.28;4.45;;;;;;;;;;5068793;28;20056;-72
2022/07/20 06:29:08;;;;;;;4.72;4.22;;;;;;;;;;5068548;28;20515;-70
2022/07/20 06:32:03;;;;;;;6.00;4.28;;;;;;;;;;5056178;28;20049;-71
2022/07/20 06:34:48;;;;;;;8.15;4.65;;;;;;;;;;5048627;28;20397;-71
2022/07/20 06:37:43;;;;;;;5.13;4.63;;;;;;;;;;5047525;28;20041;-71
2022/07/20 06:40:18;;;;;;;7.70;5.20;;;;;;;;;;5065519;28;20060;-71
2022/07/20 06:43:07;;;;;;;7.55;4.82;;;;;;;;;;5055978;28;20144;-70
2022/07/20 06:45:49;;;;;;;4.57;4.18;;;;;;;;;;5069205;28;20055;-71
2022/07/20 06:48:40;;;;;;;4.63;4.15;;;;;;;;;;5070302;28;20045;-71
2022/07/20 06:51:24;;;;;;;7.47;3.92;;;;;;;;;;5051374;28;20446;-70
2022/07/20 06:54:13;;;;;;;5.50;4.40;;;;;;;;;;5068530;28;20064;-71
2022/07/20 06:56:54;;;;;;;5.40;4.07;;;;;;;;;;5068126;28;20080;-71
2022/07/20 06:59:43;;;;;;;6.28;4.35;;;;;;;;;;5067885;28;20051;-71
2022/07/20 07:02:25;;;;;;;4.55;4.13;;;;;;;;;;5068352;28;20698;-70
2022/07/20 07:05:14;;;;;;;4.68;4.22;;;;;;;;;;5068488;28;20076;-70
2022/07/20 07:07:56;;;;;;;5.53;4.13;;;;;;;;;;5067542;28;20550;-70
2022/07/20 07:10:51;;;;;;;8.95;4.18;;;;;;;;;;5067936;28;20407;-69
2022/07/20 07:13:26;;;;;;;8.23;5.20;;;;;;;;;;5066936;28;20044;-70
2022/07/20 07:16:21;;;;;;;5.55;4.95;;;;;;;;;;5066107;28;20058;-71
2022/07/20 07:19:10;;;;;;;6.03;4.95;;;;;;;;;;5065666;28;20583;-69
2022/07/20 07:22:05;;;;;;;10.07;5.70;;;;;;;;;;5047639;28;20071;-72
2022/07/20 07:24:40;;;;;;;10.63;5.72;;;;;;;;;;5027777;28;20103;-70
2022/07/20 07:27:28;;;;;;;6.47;5.60;;;;;;;;;;5027200;28;20069;-70
2022/07/20 07:30:10;;;;;;;6.78;5.97;;;;;;;;;;5027519;28;20051;-70
2022/07/20 07:32:59;;;;;;;10.02;7.18;;;;;;;;;;5028372;28;20060;-70
2022/07/20 07:35:46;;;;;;;9.73;7.57;;;;;;;;;;5028019;28;20791;-70
2022/07/20 07:38:28;;;;;;;9.90;8.90;;;;;;;;;;5028074;28;20053;-71
2022/07/20 07:41:16;;;;;;;10.45;8.80;;;;;;;;;;5037507;28;20061;-71
2022/07/20 07:43:58;;;;;;;11.25;10.00;;;;;;;;;;5047930;28;20067;-72
2022/07/20 07:46:46;;;;;;;12.80;9.80;;;;;;;;;;5056340;28;20056;-72
2022/07/20 07:49:28;;;;;;;13.35;8.98;;;;;;;;;;5066056;28;20056;-70
2022/07/20 07:52:16;;;;;;;12.75;11.10;;;;;;;;;;5045454;28;20438;-71
2022/07/20 07:54:58;;;;;;;12.40;10.23;;;;;;;;;;5047293;28;20413;-72
2022/07/20 07:57:45;;;;;;;10.80;9.27;;;;;;;;;;5046216;28;20076;-72
2022/07/20 08:00:27;;;;;;;9.13;8.20;;;;;;;;;;5046849;28;20049;-69
2022/07/20 08:03:15;;;;;;;8.13;7.25;;;;;;;;;;5046862;28;20123;-72
2022/07/20 08:05:57;;;;;;;9.82;6.28;;;;;;;;;;5043068;28;20140;-73
2022/07/20 08:08:45;;;;;;;10.07;6.22;;;;;;;;;;5026219;28;20153;-71
2022/07/20 08:11:41;;;;;;;6.25;5.25;;;;;;;;;;5026712;28;20132;-72
2022/07/20 08:14:23;;;;;;;6.22;5.30;;;;;;;;;;5046603;28;20051;-73
2022/07/20 08:17:12;;;;;;;9.35;4.88;;;;;;;;;;5042457;28;20102;-68
2022/07/20 08:20:00;;;;;;;7.13;5.60;;;;;;;;;;5028968;28;20067;-70
2022/07/20 08:22:50;;;;;;;5.60;4.70;;;;;;;;;;5026629;28;20045;-72
2022/07/20 08:25:32;;;;;;;13.45;4.72;;;;;;;;;;5028618;28;20044;-71
2022/07/20 08:28:27;;;;;;;5.63;3.45;;;;;;;;;;5046330;28;20057;-71
2022/07/20 08:31:02;;;;;;;6.20;4.50;;;;;;;;;;5052553;28;20745;-71
2022/07/20 08:33:50;;;;;;;4.85;4.20;;;;;;;;;;5066841;28;20124;-69
2022/07/20 08:36:39;;;;;;;7.15;4.35;;;;;;;;;;5034395;28;20101;-71
2022/07/20 08:39:21;;;;;;;5.63;3.53;;;;;;;;;;5065353;28;20052;-72
2022/07/20 08:42:09;;;;;;;7.15;3.80;;;;;;;;;;5043565;28;20061;-70
2022/07/20 08:44:51;;;;;;;7.00;4.00;;;;;;;;;;5037656;28;20057;-71
2022/07/20 08:47:41;;;;;;;5.97;3.97;;;;;;;;;;5037211;28;20076;-72
2022/07/20 08:50:43;;;;;;;4.85;3.70;;;;;;;;;;5037324;28;20145;-72
2022/07/20 08:53:38;;;;;;;6.38;4.07;;;;;;;;;;5036323;28;20542;-73
2022/07/20 08:56:16;;;;;;;4.90;4.03;;;;;;;;;;5050192;28;20069;-72
2022/07/20 08:59:11;;;;;;;5.50;4.28;;;;;;;;;;5037860;28;20566;-71
2022/07/20 09:01:59;;;;;;;4.45;4.03;;;;;;;;;;5038838;28;20049;-73
2022/07/20 09:05:01;;;;;;;6.15;4.65;;;;;;;;;;5038479;28;20103;-71
2022/07/20 09:07:43;;;;;;;4.47;3.90;;;;;;;;;;5033515;28;20494;-72
2022/07/20 09:10:38;;;;;;;5.32;4.40;;;;;;;;;;5048525;28;20045;-73
2022/07/20 09:13:17;;;;;;;6.20;4.90;;;;;;;;;;5044528;28;20060;-69
2022/07/20 09:16:12;;;;;;;4.35;3.95;;;;;;;;;;5045958;28;20089;-68
2022/07/20 09:18:47;;;;;;;6.07;4.43;;;;;;;;;;5039083;28;20049;-70
2022/07/20 09:21:42;;;;;;;4.93;4.10;;;;;;;;;;5045464;28;20120;-68
2022/07/20 09:24:37;;;;;;;5.57;4.20;;;;;;;;;;5013044;28;20068;-70
2022/07/20 09:27:32;;;;;;;5.10;3.92;;;;;;;;;;5045445;28;20754;-70
2022/07/20 09:30:14;;;;;;;4.43;3.53;;;;;;;;;;5045035;28;20052;-71
2022/07/20 09:33:03;;;;;;;5.22;3.63;;;;;;;;;;5045335;28;20047;-71
2022/07/20 09:35:45;;;;;;;6.57;3.10;;;;;;;;;;5045727;28;20059;-70
2022/07/20 09:38:35;;;;;;;4.22;3.10;;;;;;;;;;5045799;28;20072;-70
2022/07/20 09:41:31;;;;;;;4.93;2.45;;;;;;;;;;5045595;28;20076;-71
2022/07/20 09:44:27;;;;;;;3.55;2.85;;;;;;;;;;5045258;28;20056;-69
2022/07/20 09:47:10;;;;;;;4.40;2.72;;;;;;;;;;5045537;28;20503;-70
2022/07/20 09:49:59;;;;;;;3.20;2.90;;;;;;;;;;5030628;28;20642;-71
2022/07/20 09:52:41;;;;;;;4.28;2.90;;;;;;;;;;5045707;28;20048;-71
2022/07/20 09:55:31;;;;;;;4.68;3.90;;;;;;;;;;5027551;28;20053;-70
2022/07/20 09:58:13;;;;;;;3.88;3.58;;;;;;;;;;5048030;28;20870;-72
2022/07/20 10:01:02;;;;;;;4.45;3.30;;;;;;;;;;5055556;28;20048;-70
2022/07/20 10:03:46;;;;;;;6.25;3.88;;;;;;;;;;5049444;28;20072;-69
2022/07/20 10:06:45;;;;;;;6.32;3.70;;;;;;;;;;5063952;28;20771;-70
2022/07/20 10:09:20;;;;;;;6.03;3.92;;;;;;;;;;5063689;28;20055;-71
2022/07/20 10:12:15;;;;;;;4.85;4.30;;;;;;;;;;5045123;28;20045;-71
2022/07/20 10:14:51;;;;;;;4.40;4.00;;;;;;;;;;5045039;28;20057;-70
2022/07/20 10:17:41;;;;;;;5.88;4.95;;;;;;;;;;5021528;28;20052;-72
2022/07/20 10:20:35;;;;;;;8.32;4.68;;;;;;;;;;5054718;28;20056;-71
2022/07/20 10:23:32;;;;;;;11.52;4.43;;;;;;;;;;4688815;28;10000865;-70
2022/07/20 10:26:24;;;;;;;5.03;4.35;;;;;;;;;;5051556;28;20535;-69
2022/07/20 10:29:12;;;;;;;6.22;5.00;;;;;;;;;;5049437;28;22788;-68
2022/07/20 10:31:55;;;;;;;5.18;4.60;;;;;;;;;;5048488;28;20087;-69
2022/07/20 10:34:48;;;;;;;8.70;4.82;;;;;;;;;;5042127;28;20052;-70
2022/07/20 10:37:37;;;;;;;11.32;6.32;;;;;;;;;;5047247;28;20048;-70
2022/07/20 10:40:29;;;;;;;5.97;4.53;;;;;;;;;;5047931;28;20069;-70
2022/07/20 10:43:12;;;;;;;4.93;4.47;;;;;;;;;;5053433;28;20053;-69
2022/07/20 10:46:00;;;;;;;6.45;4.43;;;;;;;;;;5058722;28;20049;-71
2022/07/20 10:48:48;;;;;;;5.78;4.50;;;;;;;;;;5053449;28;20072;-70
2022/07/20 10:51:35;;;;;;;8.15;4.85;;;;;;;;;;5055223;28;20872;-71
2022/07/20 10:54:32;;;;;;;7.63;5.13;;;;;;;;;;5051635;28;20064;-70
2022/07/20 10:57:20;;;;;;;5.65;4.80;;;;;;;;;;5047596;28;20056;-70
2022/07/20 11:00:17;;;;;;;6.55;5.25;;;;;;;;;;5054401;28;20807;-71
2022/07/20 11:02:52;;;;;;;5.80;5.03;;;;;;;;;;5045102;28;20057;-71
2022/07/20 11:05:47;;;;;;;7.18;6.13;;;;;;;;;;5046358;28;20056;-71
2022/07/20 11:08:22;;;;;;;7.03;4.78;;;;;;;;;;5047983;28;20057;-71
2022/07/20 11:11:22;;;;;;;7.03;5.60;;;;;;;;;;5056716;28;20059;-70
2022/07/20 11:13:58;;;;;;;7.28;5.88;;;;;;;;;;5028442;28;20365;-71
2022/07/20 11:17:00;;;;;;;7.57;5.57;;;;;;;;;;5053509;28;20459;-71
2022/07/20 11:19:39;;;;;;;7.28;5.47;;;;;;;;;;5057439;28;20553;-72
2022/07/20 11:22:34;;;;;;;9.05;6.80;;;;;;;;;;5057150;28;20052;-70
2022/07/20 11:25:09;;;;;;;8.38;6.32;;;;;;;;;;5058661;28;20138;-71
2022/07/20 11:28:01;;;;;;;10.35;6.00;;;;;;;;;;5049909;28;20048;-70
2022/07/20 11:30:50;;;;;;;12.07;6.53;;;;;;;;;;5049316;28;20047;-69
2022/07/20 11:33:33;;;;;;;7.40;5.72;;;;;;;;;;5050370;28;20384;-71
2022/07/20 11:36:22;;;;;;;8.45;6.40;;;;;;;;;;5051311;28;20041;-70
2022/07/20 11:39:06;;;;;;;7.32;5.95;;;;;;;;;;5051500;28;20153;-70
2022/07/20 11:41:55;;;;;;;12.40;7.38;;;;;;;;;;5052557;28;20628;-70
2022/07/20 11:44:37;;;;;;;9.30;7.50;;;;;;;;;;5052312;28;20052;-71
2022/07/20 11:47:24;;;;;;;9.88;7.47;;;;;;;;;;5051037;28;20144;-71
2022/07/20 11:50:07;;;;;;;11.93;6.97;;;;;;;;;;5053529;28;20040;-71
2022/07/20 11:53:00;;;;;;;9.93;7.28;;;;;;;;;;5053236;28;20048;-72
2022/07/20 11:55:49;;;;;;;10.60;7.25;;;;;;;;;;5055083;28;20126;-71
2022/07/20 11:58:38;;;;;;;10.10;8.07;;;;;;;;;;5048411;28;20067;-71
2022/07/20 12:01:22;;;;;;;8.90;7.45;;;;;;;;;;5053823;28;20442;-71
2022/07/20 12:04:11;;;;;;;8.68;7.32;;;;;;;;;;5052085;28;20157;-71
2022/07/20 12:06:54;;;;;;;13.45;7.75;;;;;;;;;;5054972;28;20566;-72
2022/07/20 12:09:42;;;;;;;11.10;7.75;;;;;;;;;;5046095;28;20447;-71
2022/07/20 12:12:47;;;;;;;10.18;7.90;;;;;;;;;;5057853;28;20101;-71
2022/07/20 12:15:36;;;;;;;12.15;8.60;;;;;;;;;;5065150;28;20129;-69
2022/07/20 12:18:33;;;;;;;11.43;7.97;;;;;;;;;;5065619;28;20055;-71
2022/07/20 12:21:27;;;;;;;10.95;8.68;;;;;;;;;;5051326;28;20055;-71
2022/07/20 12:24:09;;;;;;;15.85;8.95;;;;;;;;;;5060595;28;20053;-71
2022/07/20 12:27:13;;;;;;;12.90;9.02;;;;;;;;;;5056831;28;20068;-71
2022/07/20 12:30:21;;;;;;;10.73;8.57;;;;;;;;;;5046507;28;20162;-72
2022/07/20 12:33:11;;;;;;;11.23;8.77;;;;;;;;;;5049867;28;20048;-71
2022/07/20 12:36:02;;;;;;;15.93;9.13;;;;;;;;;;5052084;28;20056;-71
2022/07/20 12:38:55;;;;;;;22.08;11.95;;;;;;;;;;5060079;28;20048;-72
2022/07/20 12:41:44;;;;;;;14.20;9.20;;;;;;;;;;5056775;28;20047;-71
2022/07/20 12:44:52;;;;;;;14.07;9.48;;;;;;;;;;5066642;28;20135;-71
2022/07/20 12:47:43;;;;;;;13.73;10.10;;;;;;;;;;5065395;28;20044;-71
2022/07/20 12:50:44;;;;;;;11.60;9.60;;;;;;;;;;5065715;28;20041;-73
2022/07/20 12:53:33;;;;;;;11.68;9.57;;;;;;;;;;5064397;28;20123;-72
2022/07/20 12:56:23;;;;;;;13.98;9.15;;;;;;;;;;5027749;28;20052;-72
2022/07/20 12:59:12;;;;;;;13.00;9.93;;;;;;;;;;5058036;28;20048;-69
2022/07/20 13:01:53;;;;;;;19.98;9.75;;;;;;;;;;5065465;28;20045;-71
2022/07/20 13:04:42;;;;;;;12.48;9.10;;;;;;;;;;5044778;28;20049;-69
2022/07/20 13:07:30;;;;;;;15.02;9.15;;;;;;;;;;5044796;28;20064;-68
2022/07/20 13:10:12;;;;;;;12.13;9.00;;;;;;;;;;5046009;28;20048;-71
2022/07/20 13:13:01;;;;;;;19.73;9.10;;;;;;;;;;5050538;28;20114;-69
2022/07/20 13:15:50;;;;;;;13.90;9.23;;;;;;;;;;5064581;28;20083;-70
2022/07/20 13:18:32;;;;;;;44.60;12.10;;;;;;;;;;5062883;28;20048;-70
2022/07/20 13:21:22;;;;;;;19.30;9.43;;;;;;;;;;5064738;28;20048;-71
2022/07/20 13:24:11;;;;;;;12.75;9.10;;;;;;;;;;5064508;28;20068;-70
2022/07/20 13:26:59;;;;;;;13.73;9.82;;;;;;;;;;5040627;28;20049;-70
2022/07/20 13:29:47;;;;;;;13.45;10.13;;;;;;;;;;5039949;28;20045;-69
2022/07/20 13:32:36;;;;;;;19.15;8.68;;;;;;;;;;5044929;28;20508;-70
2022/07/20 13:35:25;;;;;;;13.98;10.45;;;;;;;;;;5043873;28;20057;-73
2022/07/20 13:38:13;;;;;;;12.02;9.30;;;;;;;;;;5047611;28;20055;-70
2022/07/20 13:41:02;;;;;;;13.63;9.80;;;;;;;;;;4687244;28;10000005;-69
2022/07/20 13:43:51;;;;;;;15.38;9.65;;;;;;;;;;5035633;28;20099;-68
2022/07/20 13:46:27;;;;;;;12.38;9.82;;;;;;;;;;5043167;28;20063;-69
2022/07/20 13:49:17;;;;;;;14.27;10.20;;;;;;;;;;5042035;28;20044;-70
2022/07/20 13:51:59;;;;;;;13.13;9.18;;;;;;;;;;5043235;28;20048;-70
2022/07/20 13:55:04;;;;;;;9.98;8.88;;;;;;;;;;5043468;28;20095;-68
2022/07/20 13:57:46;;;;;;;9.52;8.15;;;;;;;;;;5036513;28;20077;-68
2022/07/20 14:00:41;;;;;;;11.80;8.52;;;;;;;;;;5030014;28;20053;-69
2022/07/20 14:03:17;;;;;;;13.02;8.63;;;;;;;;;;5018101;28;20056;-70
2022/07/20 14:06:06;;;;;;;12.43;9.10;;;;;;;;;;5041641;28;20073;-67
2022/07/20 14:08:54;;;;;;;10.88;8.95;;;;;;;;;;5039943;28;20140;-71
2022/07/20 14:11:43;;;;;;;10.05;7.88;;;;;;;;;;5020817;28;20107;-68
2022/07/20 14:14:31;;;;;;;11.88;9.38;;;;;;;;;;5027101;28;20105;-69
2022/07/20 14:17:13;;;;;;;14.23;9.07;;;;;;;;;;5033372;28;20122;-68
2022/07/20 14:20:02;;;;;;;10.32;8.65;;;;;;;;;;4694796;28;10001005;-69
2022/07/20 14:22:51;;;;;;;14.82;9.18;;;;;;;;;;5024581;28;20047;-69
2022/07/20 14:25:44;;;;;;;10.63;8.77;;;;;;;;;;5038304;28;20126;-68
2022/07/20 14:28:26;;;;;;;10.93;8.60;;;;;;;;;;5055996;28;20040;-67
2022/07/20 14:31:14;;;;;;;10.52;8.88;;;;;;;;;;5058141;28;20052;-72
2022/07/20 14:34:02;;;;;;;12.07;9.05;;;;;;;;;;5065333;28;20094;-69
2022/07/20 14:36:51;;;;;;;16.63;9.75;;;;;;;;;;5064835;28;20044;-68
2022/07/20 14:39:33;;;;;;;14.23;9.93;;;;;;;;;;5065311;28;20845;-67
2022/07/20 14:42:21;;;;;;;11.15;8.52;;;;;;;;;;5030965;28;20423;-69
2022/07/20 14:45:03;;;;;;;11.43;8.70;;;;;;;;;;5071237;28;20055;-69
2022/07/20 14:47:52;;;;;;;10.13;8.88;;;;;;;;;;5048158;28;20056;-67
2022/07/20 14:50:34;;;;;;;10.55;8.95;;;;;;;;;;5055398;28;20052;-68
2022/07/20 14:53:23;;;;;;;10.40;9.23;;;;;;;;;;5062550;28;20074;-67
2022/07/20 14:56:05;;;;;;;12.55;9.27;;;;;;;;;;5066665;28;20449;-67
2022/07/20 14:58:53;;;;;;;14.65;10.43;;;;;;;;;;5059504;28;20256;-71
2022/07/20 15:01:42;;;;;;;13.82;9.30;;;;;;;;;;5050156;28;20049;-74
2022/07/20 15:04:23;;;;;;;12.35;8.93;;;;;;;;;;5045655;28;20084;-72
2022/07/20 15:07:18;;;;;;;11.15;9.70;;;;;;;;;;5075175;28;20044;-70
2022/07/20 15:09:53;;;;;;;15.45;9.95;;;;;;;;;;5070184;28;20052;-71
2022/07/20 15:12:42;;;;;;;13.55;9.18;;;;;;;;;;5087708;28;20662;-69
2022/07/20 15:15:30;;;;;;;13.95;9.88;;;;;;;;;;5045888;28;20206;-70
2022/07/20 15:18:12;;;;;;;13.10;10.13;;;;;;;;;;5047602;28;20056;-70
2022/07/20 15:20:59;;;;;;;11.63;8.88;;;;;;;;;;5048477;28;20737;-70
2022/07/20 15:23:49;;;;;;;15.40;10.85;;;;;;;;;;5047546;28;20044;-69
2022/07/20 15:26:37;;;;;;;14.95;9.95;;;;;;;;;;5048880;28;20117;-68
2022/07/20 15:29:32;;;;;;;12.10;9.57;;;;;;;;;;5058882;28;20053;-71
2022/07/20 15:32:07;;;;;;;16.80;10.00;;;;;;;;;;5056621;28;20072;-71
2022/07/20 15:34:57;;;;;;;11.80;9.48;;;;;;;;;;5057936;28;20117;-70
2022/07/20 15:37:45;;;;;;;13.27;10.63;;;;;;;;;;5049867;28;20045;-69
2022/07/20 15:40:27;;;;;;;14.75;10.52;;;;;;;;;;5055839;28;20045;-70
2022/07/20 15:43:15;;;;;;;12.77;10.32;;;;;;;;;;5053674;28;20147;-70
2022/07/20 15:45:57;;;;;;;13.82;11.15;;;;;;;;;;5049773;28;20052;-70
2022/07/20 15:48:48;;;;;;;13.63;10.57;;;;;;;;;;5061449;28;20049;-70
2022/07/20 15:51:31;;;;;;;14.18;10.77;;;;;;;;;;5067965;28;20056;-70
2022/07/20 15:54:19;;;;;;;14.05;10.80;;;;;;;;;;5052398;28;20049;-70
2022/07/20 15:57:20;;;;;;;14.60;10.27;;;;;;;;;;5050594;28;20052;-68
2022/07/20 16:00:10;;;;;;;14.45;10.75;;;;;;;;;;5029397;28;20114;-70
2022/07/20 16:02:52;;;;;;;15.98;11.45;;;;;;;;;;5045834;28;20048;-69
2022/07/20 16:05:40;;;;;;;13.88;11.35;;;;;;;;;;5047081;28;20130;-71
2022/07/20 16:08:22;;;;;;;17.20;11.45;;;;;;;;;;5066145;28;20060;-71
2022/07/20 16:11:12;;;;;;;16.25;11.63;;;;;;;;;;5066159;28;20071;-70
2022/07/20 16:13:54;;;;;;;15.68;11.57;;;;;;;;;;5066937;28;20056;-70
2022/07/20 16:16:42;;;;;;;17.73;12.05;;;;;;;;;;5059536;28;20111;-69
2022/07/20 16:19:26;;;;;;;16.17;11.65;;;;;;;;;;4699290;28;10000456;-70
2022/07/20 16:22:15;;;;;;;16.50;11.55;;;;;;;;;;5065650;28;20055;-71
2022/07/20 16:24:56;;;;;;;14.82;10.55;;;;;;;;;;5049987;28;20036;-72
2022/07/20 16:27:57;;;;;;;17.33;10.82;;;;;;;;;;5048000;28;20114;-71